^^
Station Historical Data
Daily Summary for September 5, 2017 Units:  English    Metric   Both
« Previous Day
Next Day »
Daily Weekly Monthly Yearly Custom
  High: Low: Average:
Temperature: 85.9 °F 67.3 °F 74 °F
Dew Point: 71.4 °F 60.3 °F 66.2 °F
Humidity: 94% 60% 78%
Wind Speed: 7.0mph 0.0mph 2.9mph
Wind Gust: 15.0mph - -
Wind- - SSW
Pressure: 29.85 in 29.71 in -
Precipitation: 0.04 in    
Historical Graphs
 
 
Tabular Data for September 5, 2017
Time Temperature Dew Point Pressure Wind Wind Speed Wind Gust Humidity Rainfall Rate (Hourly) Conditions
00:00 69.9 °F 60.5 °F 29.85 in SSW 5.0 mph 12.0 mph 72% 0.00 in CLR
00:15 69.8 °F 60.4 °F 29.84 in SSW 5.0 mph 15.0 mph 72% 0.00 in CLR
00:30 69.7 °F 60.3 °F 29.85 in South 7.0 mph 13.0 mph 72% 0.00 in CLR
00:45 69.6 °F 60.6 °F 29.85 in SSW 5.0 mph 13.0 mph 73% 0.00 in CLR
01:00 69.4 °F 60.4 °F 29.85 in SSW 5.0 mph 12.0 mph 73% 0.00 in CLR
01:15 69.1 °F 60.5 °F 29.84 in SSW 2.0 mph 9.0 mph 74% 0.00 in CLR
01:30 68.8 °F 60.6 °F 29.84 in SSW 2.0 mph 9.0 mph 75% 0.00 in CLR
01:45 68.8 °F 60.9 °F 29.84 in SW 1.0 mph 8.0 mph 76% 0.00 in CLR
02:00 68.7 °F 61.2 °F 29.83 in South 2.0 mph 7.0 mph 77% 0.00 in CLR
02:15 68.7 °F 61.2 °F 29.83 in SSW 3.0 mph 12.0 mph 77% 0.00 in SCT
02:30 68.4 °F 61.6 °F 29.83 in SSW 3.0 mph 9.0 mph 79% 0.00 in SCT
02:45 68.1 °F 61.7 °F 29.83 in SW 5.0 mph 10.0 mph 80% 0.00 in SCT
03:00 67.9 °F 61.9 °F 29.83 in South 2.0 mph 10.0 mph 81% 0.00 in SCT
03:15 67.7 °F 62.0 °F 29.83 in South 1.0 mph 8.0 mph 82% 0.00 in SCT
03:30 67.7 °F 62.3 °F 29.83 in SSW 6.0 mph 11.0 mph 83% 0.00 in SCT
03:45 67.7 °F 62.7 °F 29.83 in SSW 3.0 mph 13.0 mph 84% 0.00 in SCT
04:00 67.5 °F 62.5 °F 29.82 in South 3.0 mph 9.0 mph 84% 0.00 in SCT
04:15 67.4 °F 62.7 °F 29.81 in South 5.0 mph 9.0 mph 85% 0.00 in CLR
04:30 67.4 °F 63.1 °F 29.82 in SSW 3.0 mph 12.0 mph 86% 0.00 in CLR
04:45 67.4 °F 63.1 °F 29.82 in SSW 2.0 mph 10.0 mph 86% 0.00 in CLR
05:00 67.3 °F 63.3 °F 29.81 in SSW 3.0 mph 8.0 mph 87% 0.00 in CLR
05:15 67.4 °F 63.7 °F 29.82 in SSW 5.0 mph 10.0 mph 88% 0.00 in CLR
05:30 67.6 °F 63.6 °F 29.81 in SSW 5.0 mph 12.0 mph 87% 0.00 in CLR
05:45 67.6 °F 63.6 °F 29.82 in SW 5.0 mph 12.0 mph 87% 0.00 in CLR
06:00 67.5 °F 63.8 °F 29.82 in SW 1.0 mph 9.0 mph 88% 0.00 in CLR
06:15 67.5 °F 63.8 °F 29.82 in South 3.0 mph 8.0 mph 88% 0.00 in SCT
06:30 67.6 °F 63.9 °F 29.82 in SSW 3.0 mph 11.0 mph 88% 0.00 in SCT
06:45 67.7 °F 64.0 °F 29.82 in SSW 6.0 mph 9.0 mph 88% 0.00 in SCT
07:00 67.9 °F 64.2 °F 29.82 in South 6.0 mph 12.0 mph 88% 0.00 in SCT
07:15 68.1 °F 64.4 °F 29.81 in SW 6.0 mph 10.0 mph 88% 0.00 in BKN
07:30 68.4 °F 64.7 °F 29.82 in SW 3.0 mph 12.0 mph 88% 0.00 in BKN
07:45 68.7 °F 65.0 °F 29.81 in SSW 6.0 mph 12.0 mph 88% 0.00 in BKN
08:00 69.0 °F 65.0 °F 29.82 in SSW 6.0 mph 10.0 mph 87% 0.00 in BKN
08:15 69.4 °F 65.4 °F 29.81 in SSW 5.0 mph 13.0 mph 87% 0.00 in SCT
08:30 69.9 °F 65.9 °F 29.82 in South 3.0 mph 12.0 mph 87% 0.00 in SCT
08:45 70.9 °F 66.1 °F 29.81 in SSW 2.0 mph 10.0 mph 85% 0.00 in SCT
09:00 71.9 °F 66.4 °F 29.81 in SSW 3.0 mph 12.0 mph 83% 0.00 in SCT
09:15 72.6 °F 66.8 °F 29.81 in South 3.0 mph 8.0 mph 82% 0.00 in CLR
09:30 73.5 °F 66.9 °F 29.81 in South 5.0 mph 9.0 mph 80% 0.00 in CLR
10:00 75.3 °F 67.6 °F 29.82 in South 3.0 mph 12.0 mph 77% 0.00 in CLR
10:30 76.8 °F 67.8 °F 29.81 in SW 2.0 mph 9.0 mph 74% 0.00 in CLR
10:45 77.8 °F 68.4 °F 29.81 in SSW 2.0 mph 7.0 mph 73% 0.00 in CLR
11:00 77.9 °F 68.5 °F 29.81 in SSW 1.0 mph 8.0 mph 73% 0.00 in CLR
11:15 78.1 °F 68.3 °F 29.81 in SW 2.0 mph 8.0 mph 72% 0.00 in CLR
11:30 80.0 °F 69.4 °F 29.80 in South 2.0 mph 5.0 mph 70% 0.00 in CLR
11:45 79.6 °F 69.0 °F 29.80 in SSW 3.0 mph 12.0 mph 70% 0.00 in CLR
12:00 80.4 °F 68.9 °F 29.79 in SSW 5.0 mph 9.0 mph 68% 0.00 in CLR
12:15 80.7 °F 68.8 °F 29.79 in SSW 3.0 mph 12.0 mph 67% 0.00 in CLR
12:30 81.1 °F 68.7 °F 29.78 in SSW 2.0 mph 12.0 mph 66% 0.00 in CLR
12:45 82.0 °F 69.1 °F 29.78 in SW 6.0 mph 12.0 mph 65% 0.00 in CLR
13:00 83.0 °F 69.1 °F 29.77 in South 6.0 mph 15.0 mph 63% 0.00 in CLR
13:15 83.2 °F 69.3 °F 29.76 in SW 5.0 mph 10.0 mph 63% 0.00 in FEW
13:30 84.1 °F 69.2 °F 29.76 in SSW 6.0 mph 12.0 mph 61% 0.00 in FEW
13:45 84.3 °F 68.9 °F 29.75 in SW 7.0 mph 14.0 mph 60% 0.00 in FEW
14:00 84.1 °F 69.2 °F 29.75 in SSW 3.0 mph 13.0 mph 61% 0.00 in FEW
14:15 84.4 °F 69.0 °F 29.74 in SW 6.0 mph 12.0 mph 60% 0.00 in FEW
14:30 84.8 °F 69.4 °F 29.74 in SSW 2.0 mph 15.0 mph 60% 0.00 in FEW
14:45 85.0 °F 69.6 °F 29.74 in SSW 7.0 mph 13.0 mph 60% 0.00 in FEW
15:00 85.2 °F 69.7 °F 29.73 in South 5.0 mph 12.0 mph 60% 0.00 in FEW
15:15 85.1 °F 69.7 °F 29.74 in SW 6.0 mph 13.0 mph 60% 0.00 in FEW
15:30 85.9 °F 71.4 °F 29.73 in SW 3.0 mph 9.0 mph 62% 0.00 in FEW
15:45 84.8 °F 71.3 °F 29.73 in SW 2.0 mph 10.0 mph 64% 0.00 in FEW
16:00 84.6 °F 71.1 °F 29.72 in West 3.0 mph 8.0 mph 64% 0.00 in FEW
16:15 84.0 °F 71.4 °F 29.72 in SSW 6.0 mph 12.0 mph 66% 0.00 in FEW
16:30 83.8 °F 70.8 °F 29.72 in SSW 5.0 mph 10.0 mph 65% 0.00 in FEW
16:45 83.2 °F 70.6 °F 29.71 in SSW 5.0 mph 12.0 mph 66% 0.00 in FEW
17:00 81.9 °F 70.7 °F 29.71 in South 1.0 mph 6.0 mph 69% 0.00 in FEW
17:15 81.3 °F 70.2 °F 29.71 in SSW 2.0 mph 8.0 mph 69% 0.00 in FEW
17:30 81.2 °F 70.5 °F 29.72 in SW 1.0 mph 8.0 mph 70% 0.00 in FEW
17:45 80.7 °F 70.4 °F 29.73 in Calm   8.0 mph 71% 0.00 in FEW
18:00 80.2 °F 70.8 °F 29.73 in Calm   6.0 mph 73% 0.00 in FEW
18:15 79.7 °F 70.3 °F 29.74 in SSW 1.0 mph 6.0 mph 73% 0.00 in FEW
18:30 79.6 °F 70.2 °F 29.74 in SSW 3.0 mph 7.0 mph 73% 0.00 in FEW
18:45 79.3 °F 69.9 °F 29.76 in WSW 3.0 mph 8.0 mph 73% 0.00 in FEW
19:00 78.9 °F 69.9 °F 29.76 in Calm   4.0 mph 74% 0.00 in FEW
19:15 78.3 °F 69.3 °F 29.77 in Calm   2.0 mph 74% 0.00 in FEW
19:30 76.8 °F 66.6 °F 29.77 in SW 1.0 mph 12.0 mph 71% 0.00 in FEW
19:45 75.8 °F 65.7 °F 29.78 in Calm   4.0 mph 71% 0.00 in FEW
20:00 75.0 °F 66.1 °F 29.82 in SSW 3.0 mph 5.0 mph 74% 0.00 in FEW
20:15 73.8 °F 65.4 °F 29.83 in WSW 2.0 mph 14.0 mph 75% 0.00 in BKN
20:30 71.6 °F 66.1 °F 29.83 in WSW 2.0 mph 12.0 mph 83% 0.03 in RA
20:45 70.1 °F 66.3 °F 29.81 in Calm   3.0 mph 88% 0.00 in BKN
21:00 68.8 °F 65.7 °F 29.80 in Calm   2.0 mph 90% 0.00 in BKN
21:15 68.2 °F 65.8 °F 29.81 in Calm   1.0 mph 92% 0.01 in RA
21:30 67.5 °F 65.1 °F 29.82 in Calm   1.0 mph 92% 0.00 in BKN
21:45 67.3 °F 65.2 °F 29.83 in Calm   1.0 mph 93% 0.00 in BKN
22:00 67.5 °F 65.7 °F 29.83 in Calm   1.0 mph 94% 0.00 in BKN
22:15 67.5 °F 65.7 °F 29.84 in Calm   1.0 mph 94% 0.00 in SCT
22:30 67.5 °F 65.7 °F 29.84 in Calm   3.0 mph 94% 0.00 in SCT
22:45 67.5 °F 65.7 °F 29.84 in South 1.0 mph 3.0 mph 94% 0.00 in SCT
23:00 67.7 °F 65.9 °F 29.84 in Calm   4.0 mph 94% 0.00 in SCT
23:15 67.7 °F 65.6 °F 29.83 in Calm   3.0 mph 93% 0.00 in SCT
23:30 67.7 °F 65.6 °F 29.82 in Calm   1.0 mph 93% 0.00 in SCT
23:45 67.5 °F 65.4 °F 29.82 in Calm   2.0 mph 93% 0.00 in SCT
TarryTown NY Weather
Compliments of Weather Underground - 1.5 mb